This is the latest recevied weather packets stored in our database for station/object DB0FN-10. If no packets are shown the sender has not sent any weather packets the latest 1 day(s).
| Time | Temp. | Humidity | Pressure | Rain* | Wind** | Luminosity | Snow |
|---|---|---|---|---|---|---|---|
| 1778054503 | 16.67° C | 64% | 1011 hPa | - | - | - | - |
| 1778053603 | 18.33° C | 58% | 1011 hPa | - | - | - | - |
| 1778050002 | 18.89° C | 54% | 1011.3 hPa | - | - | - | - |
| 1778047302 | 18.33° C | 54% | 1011.2 hPa | - | - | - | - |
| 1778045502 | 17.22° C | 59% | 1011.2 hPa | - | - | - | - |
| 1778044602 | 17.22° C | 57% | 1011.3 hPa | - | - | - | - |
| 1778043702 | 16.67° C | 58% | 1011.4 hPa | - | - | - | - |
| 1778042802 | 16.67° C | 59% | 1011.4 hPa | - | - | - | - |
| 1778041902 | 16.67° C | 59% | 1011.4 hPa | - | - | - | - |
| 1778041002 | 17.22° C | 55% | 1011.7 hPa | - | - | - | - |
| 1778037401 | 17.22° C | 56% | 1012.2 hPa | - | - | - | - |
| 1778036501 | 17.22° C | 56% | 1012.4 hPa | - | - | - | - |
| 1778035601 | 17.22° C | 58% | 1012.6 hPa | - | - | - | - |
| 1778034701 | 17.22° C | 58% | 1012.5 hPa | - | - | - | - |
| 1778032901 | 17.78° C | 62% | 1012.8 hPa | - | - | - | - |
| 1778032002 | 17.22° C | 61% | 1012.8 hPa | - | - | - | - |
| 1778031101 | 17.22° C | 59% | 1013 hPa | - | - | - | - |
| 1778030201 | 17.78° C | 56% | 1013.1 hPa | - | - | - | - |
| 1778029301 | 17.78° C | 57% | 1013.1 hPa | - | - | - | - |
| 1778028401 | 17.78° C | 58% | 1013.1 hPa | - | - | - | - |
| 1778019400 | 17.78° C | 58% | 1014 hPa | - | - | - | - |
| 1778018500 | 18.33° C | 58% | 1014.1 hPa | - | - | - | - |
* Rain since midnight (hover to see other rain measurements)
** Current wind speed in m/s (hover to see current wind gust speed)